Time;durP1;ratioP1;P1;durP2;ratioP2;P2;SDS_P1;SDS_P2;PMS_P1;PMS_P2;Temp;Humidity;BMP_temperature;BMP_pressure;BME280_temperature;BME280_humidity;BME280_pressure;Samples;Min_cycle;Max_cycle;Signal;HPM_P1;HPM_P2
2022/08/25 00:01:13;;;;;;;39.80;37.70;;;28.30;56.40;;;;;;5033501;28;20029;-79
2022/08/25 00:03:40;;;;;;;40.30;38.30;;;28.30;56.50;;;;;;5033379;28;20044;-79
2022/08/25 00:06:06;;;;;;;40.05;37.72;;;28.30;56.70;;;;;;5049945;28;20032;-78
2022/08/25 00:08:33;;;;;;;42.80;40.10;;;28.30;56.70;;;;;;5049961;28;20025;-79
2022/08/25 00:11:05;;;;;;;44.90;42.72;;;28.30;56.90;;;;;;5033292;28;20111;-79
2022/08/25 00:13:31;;;;;;;45.85;43.25;;;28.20;57.30;;;;;;5049392;28;20478;-79
2022/08/25 00:15:57;;;;;;;49.63;46.88;;;28.10;57.50;;;;;;5049307;28;20048;-79
2022/08/25 00:18:23;;;;;;;50.20;47.33;;;28.10;57.60;;;;;;5033246;28;20033;-79
2022/08/25 00:20:49;;;;;;;49.83;47.42;;;28.10;57.60;;;;;;5049775;28;20490;-79
2022/08/25 00:23:16;;;;;;;61.83;58.58;;;28.10;58.00;;;;;;5049681;28;20377;-79
2022/08/25 00:25:42;;;;;;;55.88;53.05;;;28.10;57.90;;;;;;5049640;28;20674;-79
2022/08/25 00:28:09;;;;;;;52.67;49.92;;;28.10;57.90;;;;;;5032590;28;20060;-79
2022/08/25 00:30:35;;;;;;;46.38;44.13;;;28.00;58.10;;;;;;5031894;28;20021;-79
2022/08/25 00:33:03;;;;;;;48.92;46.42;;;28.00;58.20;;;;;;5033329;28;20497;-79
2022/08/25 00:35:29;;;;;;;50.60;48.13;;;28.10;58.30;;;;;;5049273;28;20029;-79
2022/08/25 00:37:55;;;;;;;55.38;52.30;;;28.10;58.40;;;;;;5049392;28;20037;-79
2022/08/25 00:40:22;;;;;;;49.55;47.13;;;28.10;58.50;;;;;;5004982;28;20034;-79
2022/08/25 00:42:48;;;;;;;55.45;52.50;;;28.00;58.70;;;;;;5029167;28;20030;-79
2022/08/25 00:45:14;;;;;;;50.47;47.78;;;28.00;58.90;;;;;;5046928;28;20052;-79
2022/08/25 00:47:41;;;;;;;51.20;48.25;;;27.90;59.50;;;;;;5051643;28;20049;-78
2022/08/25 00:50:08;;;;;;;50.05;47.45;;;27.90;59.30;;;;;;5049236;28;20025;-78
2022/08/25 00:52:39;;;;;;;51.05;48.42;;;27.80;59.30;;;;;;5016249;28;20041;-79
2022/08/25 00:55:20;;;;;;;42.90;40.50;;;27.80;59.20;;;;;;5033186;28;20029;-78
2022/08/25 00:57:52;;;;;;;45.67;43.28;;;27.70;59.20;;;;;;5032556;28;20040;-78
2022/08/25 01:00:33;;;;;;;50.00;47.45;;;27.60;58.90;;;;;;5035193;28;20028;-79
2022/08/25 01:02:59;;;;;;;46.78;44.50;;;27.60;59.20;;;;;;5053482;28;20465;-78
2022/08/25 01:05:25;;;;;;;51.55;48.88;;;27.70;59.80;;;;;;5036644;28;20044;-79
2022/08/25 01:07:51;;;;;;;46.78;44.33;;;27.70;59.50;;;;;;5036614;28;20040;-79
2022/08/25 01:10:18;;;;;;;42.20;40.10;;;27.60;58.30;;;;;;5036399;28;20628;-78
2022/08/25 01:12:44;;;;;;;42.88;40.60;;;27.30;58.20;;;;;;5052911;28;20492;-78
2022/08/25 01:15:11;;;;;;;41.80;39.67;;;27.10;58.50;;;;;;5035753;28;20041;-78
2022/08/25 01:17:48;;;;;;;39.15;37.28;;;27.20;58.30;;;;;;5036457;28;20049;-79
2022/08/25 01:20:15;;;;;;;38.88;36.78;;;27.10;58.30;;;;;;5053254;28;20478;-78
2022/08/25 01:22:41;;;;;;;38.83;36.83;;;27.20;58.10;;;;;;5036300;28;20041;-79
2022/08/25 01:25:16;;;;;;;39.72;37.72;;;27.20;57.90;;;;;;5052924;28;20021;-79
2022/08/25 01:27:42;;;;;;;40.95;38.55;;;27.20;57.80;;;;;;5052855;28;20036;-78
2022/08/25 01:30:08;;;;;;;44.30;42.20;;;27.30;57.70;;;;;;5035447;28;20420;-79
2022/08/25 01:32:35;;;;;;;46.75;44.45;;;27.30;57.90;;;;;;5036094;28;20033;-79
2022/08/25 01:35:01;;;;;;;46.67;44.42;;;27.20;57.30;;;;;;5052668;28;20029;-79
2022/08/25 01:37:27;;;;;;;48.00;45.63;;;27.00;57.60;;;;;;5035430;28;20048;-78
2022/08/25 01:39:53;;;;;;;46.22;43.97;;;27.00;57.90;;;;;;5052547;28;20021;-78
2022/08/25 01:42:47;;;;;;;45.33;43.13;;;26.90;58.10;;;;;;5051824;28;20041;-79
2022/08/25 01:45:13;;;;;;;47.78;45.15;;;26.90;58.20;;;;;;5025493;28;20040;-79
2022/08/25 01:47:39;;;;;;;44.85;42.35;;;26.90;58.20;;;;;;5055312;28;20041;-78
2022/08/25 01:50:06;;;;;;;44.45;42.03;;;26.90;58.30;;;;;;5052450;28;20040;-79
2022/08/25 01:52:36;;;;;;;41.45;39.40;;;27.00;58.10;;;;;;5036024;28;20386;-79
2022/08/25 01:55:03;;;;;;;42.50;40.35;;;27.00;58.10;;;;;;5035995;28;20021;-79
2022/08/25 01:57:30;;;;;;;42.33;40.22;;;27.00;58.10;;;;;;5035764;28;20040;-79
2022/08/25 01:59:57;;;;;;;43.83;41.63;;;27.00;58.20;;;;;;5035889;28;20040;-78
2022/08/25 02:02:23;;;;;;;40.05;38.03;;;27.00;58.30;;;;;;5035115;28;20025;-78
2022/08/25 02:04:49;;;;;;;41.13;38.95;;;26.90;58.80;;;;;;5035337;28;20041;-79
2022/08/25 02:07:15;;;;;;;38.58;36.30;;;26.70;59.10;;;;;;5052252;28;20048;-79
2022/08/25 02:09:43;;;;;;;38.08;35.88;;;26.70;59.60;;;;;;5051671;28;20037;-79
2022/08/25 02:12:09;;;;;;;42.15;39.95;;;26.60;60.20;;;;;;5051820;28;20021;-78
2022/08/25 02:14:35;;;;;;;40.13;38.00;;;26.50;60.00;;;;;;5035253;28;20041;-79
2022/08/25 02:17:02;;;;;;;43.92;41.63;;;26.50;60.40;;;;;;5051346;28;20490;-79
2022/08/25 02:19:30;;;;;;;46.05;43.85;;;26.60;60.60;;;;;;5051913;28;20041;-78
2022/08/25 02:21:57;;;;;;;42.00;39.85;;;26.60;60.70;;;;;;5051851;28;20025;-78
2022/08/25 02:24:23;;;;;;;47.47;45.08;;;26.60;60.60;;;;;;5051442;28;20036;-79
2022/08/25 02:26:49;;;;;;;47.97;45.45;;;26.60;60.70;;;;;;5034880;28;20047;-79
2022/08/25 02:29:15;;;;;;;52.75;50.05;;;26.60;60.70;;;;;;5052948;28;20025;-79
2022/08/25 02:31:42;;;;;;;48.75;46.05;;;26.60;60.70;;;;;;5050632;28;20038;-78
2022/08/25 02:34:08;;;;;;;46.20;43.83;;;26.60;61.40;;;;;;5051735;28;20385;-79
2022/08/25 02:36:36;;;;;;;47.45;44.95;;;26.60;61.40;;;;;;5031188;28;20068;-78
2022/08/25 02:39:03;;;;;;;47.80;45.15;;;26.60;61.30;;;;;;5033414;28;20040;-79
2022/08/25 02:41:30;;;;;;;46.08;43.80;;;26.60;61.50;;;;;;5068289;28;20025;-79
2022/08/25 02:43:56;;;;;;;48.10;45.38;;;26.50;61.70;;;;;;5049302;28;20183;-79
2022/08/25 02:46:23;;;;;;;44.40;42.20;;;26.50;62.00;;;;;;5054829;28;20029;-79
2022/08/25 02:48:50;;;;;;;43.38;41.08;;;26.40;62.50;;;;;;5035198;28;20032;-79
2022/08/25 02:51:16;;;;;;;43.97;41.70;;;26.40;62.80;;;;;;5052510;28;20041;-79
2022/08/25 02:53:44;;;;;;;68.07;64.38;;;26.30;63.50;;;;;;5034472;28;20021;-79
2022/08/25 02:56:11;;;;;;;62.15;58.97;;;26.10;64.90;;;;;;5034943;28;20046;-78
2022/08/25 02:58:37;;;;;;;53.58;50.83;;;25.90;65.90;;;;;;5018082;28;20059;-78
2022/08/25 03:01:04;;;;;;;53.60;50.90;;;25.90;66.40;;;;;;5017300;28;20021;-78
2022/08/25 03:03:30;;;;;;;53.70;51.00;;;25.90;66.30;;;;;;5051034;28;20055;-78
2022/08/25 03:05:56;;;;;;;57.55;54.65;;;25.80;66.40;;;;;;5034286;28;20425;-79
2022/08/25 03:08:23;;;;;;;63.70;60.40;;;25.80;66.50;;;;;;5033946;28;20049;-78
2022/08/25 03:10:49;;;;;;;73.20;69.65;;;25.80;67.30;;;;;;5051027;28;20040;-78
2022/08/25 03:13:15;;;;;;;59.28;56.28;;;25.70;67.30;;;;;;5050875;28;20461;-78
2022/08/25 03:15:42;;;;;;;68.45;65.05;;;25.70;67.70;;;;;;5050404;28;20075;-79
2022/08/25 03:18:10;;;;;;;69.35;65.53;;;25.60;68.30;;;;;;5034024;28;20045;-79
2022/08/25 03:20:37;;;;;;;74.25;70.30;;;25.70;68.00;;;;;;5050764;28;20029;-79
2022/08/25 03:23:03;;;;;;;67.82;64.32;;;25.60;68.10;;;;;;5049505;28;20039;-79
2022/08/25 03:28:14;;;;;;;64.82;61.17;;;25.70;68.00;;;;;;5052512;28;20033;-78
2022/08/25 03:30:40;;;;;;;58.53;55.42;;;25.70;68.20;;;;;;5050073;28;20485;-79
2022/08/25 03:33:07;;;;;;;61.72;58.22;;;25.50;69.00;;;;;;5033574;28;20045;-79
2022/08/25 03:35:33;;;;;;;62.28;59.08;;;25.30;69.80;;;;;;5050286;28;20054;-78
2022/08/25 03:37:59;;;;;;;61.38;57.92;;;25.10;70.80;;;;;;5033338;28;20041;-79
2022/08/25 03:40:25;;;;;;;68.95;65.40;;;25.00;71.40;;;;;;5016945;28;20044;-79
2022/08/25 03:42:52;;;;;;;66.25;62.85;;;24.90;71.60;;;;;;5050393;28;20029;-78
2022/08/25 03:45:19;;;;;;;78.45;74.38;;;24.80;71.90;;;;;;5038317;28;20029;-79
2022/08/25 03:47:46;;;;;;;70.47;66.82;;;24.70;72.30;;;;;;5019040;28;20057;-79
2022/08/25 03:50:12;;;;;;;69.53;65.93;;;24.60;72.60;;;;;;5033726;28;20017;-78
2022/08/25 03:52:38;;;;;;;68.05;64.38;;;24.60;72.70;;;;;;5016475;28;20040;-78
2022/08/25 03:55:06;;;;;;;64.32;61.00;;;24.60;72.70;;;;;;5033070;28;20040;-78
2022/08/25 03:57:32;;;;;;;72.55;68.80;;;24.70;72.50;;;;;;5017113;28;20045;-78
2022/08/25 03:59:58;;;;;;;70.30;66.80;;;24.40;73.30;;;;;;5050044;28;20096;-78
2022/08/25 04:02:25;;;;;;;69.53;65.65;;;24.40;73.60;;;;;;5033067;28;20040;-78
2022/08/25 04:04:51;;;;;;;63.00;59.58;;;24.40;73.40;;;;;;5033093;28;20032;-78
2022/08/25 04:07:17;;;;;;;60.47;57.40;;;24.30;73.90;;;;;;5033370;28;20044;-78
2022/08/25 04:09:43;;;;;;;77.88;73.72;;;24.20;74.40;;;;;;5050021;28;20036;-78
2022/08/25 04:12:09;;;;;;;64.45;60.88;;;24.10;74.50;;;;;;5033225;28;20048;-78
2022/08/25 04:14:36;;;;;;;66.00;62.28;;;24.10;74.40;;;;;;5049802;28;20033;-78
2022/08/25 04:17:02;;;;;;;61.17;58.00;;;24.10;74.70;;;;;;5049298;28;20029;-78
2022/08/25 04:19:29;;;;;;;63.47;59.90;;;24.10;74.50;;;;;;5049279;28;20033;-79
2022/08/25 04:21:55;;;;;;;66.20;62.75;;;24.10;74.50;;;;;;5049762;28;20021;-78
2022/08/25 04:24:21;;;;;;;77.43;73.43;;;24.00;75.20;;;;;;5049807;28;20033;-78
2022/08/25 04:26:49;;;;;;;63.72;60.05;;;24.10;75.00;;;;;;5033296;28;20041;-78
2022/08/25 04:29:17;;;;;;;70.03;66.32;;;24.10;74.50;;;;;;5049380;28;20028;-78
2022/08/25 04:31:45;;;;;;;72.47;68.65;;;24.00;75.10;;;;;;5049196;28;20060;-78
2022/08/25 04:34:12;;;;;;;60.97;57.65;;;23.90;75.50;;;;;;5032373;28;20033;-79
2022/08/25 04:36:38;;;;;;;77.55;73.22;;;23.80;75.90;;;;;;5049046;28;20516;-78
2022/08/25 04:39:04;;;;;;;62.58;58.97;;;23.80;76.00;;;;;;5049583;28;20029;-78
2022/08/25 04:41:31;;;;;;;62.65;59.45;;;23.90;75.90;;;;;;5032575;28;20033;-78
2022/08/25 04:43:57;;;;;;;65.47;62.10;;;23.80;76.00;;;;;;5050545;28;20389;-78
2022/08/25 04:46:25;;;;;;;74.63;70.63;;;23.70;76.90;;;;;;5053420;28;20040;-78
2022/08/25 04:48:52;;;;;;;73.25;69.00;;;23.60;76.90;;;;;;5048986;28;20024;-78
2022/08/25 04:51:22;;;;;;;65.43;61.92;;;23.70;76.90;;;;;;5030742;28;20615;-79
2022/08/25 04:53:48;;;;;;;64.72;61.42;;;23.80;76.50;;;;;;5033274;28;20025;-78
2022/08/25 04:56:16;;;;;;;75.63;71.72;;;23.70;76.50;;;;;;5032915;28;20478;-79
2022/08/25 04:58:43;;;;;;;68.53;64.78;;;23.60;77.10;;;;;;5016435;28;20528;-78
2022/08/25 05:01:11;;;;;;;72.30;68.47;;;23.50;77.50;;;;;;5032245;28;20021;-78
2022/08/25 05:03:37;;;;;;;62.95;59.42;;;23.40;78.00;;;;;;5032327;28;20041;-78
2022/08/25 05:06:03;;;;;;;68.43;64.28;;;23.30;78.20;;;;;;5049221;28;20036;-78
2022/08/25 05:08:30;;;;;;;82.45;77.40;;;23.30;78.40;;;;;;5049481;28;20350;-78
2022/08/25 05:10:56;;;;;;;83.88;79.32;;;23.40;78.00;;;;;;5032853;28;20041;-78
2022/08/25 05:13:23;;;;;;;69.78;65.88;;;23.40;78.10;;;;;;5049295;28;20025;-78
2022/08/25 05:15:57;;;;;;;74.15;70.15;;;23.30;78.30;;;;;;5031603;28;20033;-79
2022/08/25 05:18:25;;;;;;;62.85;59.42;;;23.30;78.70;;;;;;5032181;28;20068;-78
2022/08/25 05:20:52;;;;;;;61.97;58.17;;;23.20;78.70;;;;;;5032461;28;20041;-78
2022/08/25 05:23:20;;;;;;;63.63;60.13;;;23.30;78.60;;;;;;5049256;28;20299;-78
2022/08/25 05:25:46;;;;;;;65.07;61.13;;;23.30;78.50;;;;;;5049300;28;20029;-79
2022/08/25 05:28:13;;;;;;;66.07;61.95;;;23.40;78.20;;;;;;5049109;28;20025;-78
2022/08/25 05:30:40;;;;;;;71.88;67.82;;;23.40;78.10;;;;;;5031841;28;20021;-79
2022/08/25 05:33:07;;;;;;;66.13;61.88;;;23.50;77.80;;;;;;5032034;28;20409;-78
2022/08/25 05:35:33;;;;;;;67.05;63.15;;;23.40;78.20;;;;;;5048796;28;20036;-78
2022/08/25 05:37:59;;;;;;;72.95;68.72;;;23.40;78.30;;;;;;5015296;28;20045;-79
2022/08/25 05:40:25;;;;;;;70.93;66.90;;;23.40;78.20;;;;;;5032241;28;20022;-78
2022/08/25 05:42:52;;;;;;;77.18;73.03;;;23.40;78.20;;;;;;5065609;28;20517;-78
2022/08/25 05:45:18;;;;;;;73.60;69.50;;;23.40;78.20;;;;;;5054138;28;20386;-79
2022/08/25 05:47:44;;;;;;;75.72;71.47;;;23.50;78.10;;;;;;5054363;28;20053;-78
2022/08/25 05:50:10;;;;;;;79.28;74.93;;;23.50;78.10;;;;;;5052460;28;20025;-79
2022/08/25 05:52:36;;;;;;;81.03;76.15;;;23.50;77.80;;;;;;5035812;28;20025;-79
2022/08/25 05:55:03;;;;;;;79.00;74.47;;;23.60;77.40;;;;;;5035938;28;20462;-78
2022/08/25 05:57:29;;;;;;;82.70;78.05;;;23.80;77.30;;;;;;5035766;28;20059;-78
2022/08/25 05:59:55;;;;;;;79.35;74.80;;;23.80;77.40;;;;;;5035897;28;20032;-78
2022/08/25 06:05:10;;;;;;;76.75;72.30;;;23.70;78.60;;;;;;5053726;28;20036;-79
2022/08/25 06:07:36;;;;;;;72.97;68.82;;;23.80;78.30;;;;;;5052141;28;20032;-78
2022/08/25 06:10:05;;;;;;;80.03;75.72;;;23.80;78.50;;;;;;5052130;28;20029;-78
2022/08/25 06:12:32;;;;;;;70.80;66.53;;;23.70;78.60;;;;;;5052226;28;20025;-78
2022/08/25 06:14:58;;;;;;;79.60;74.88;;;23.60;79.10;;;;;;5052199;28;20462;-78
2022/08/25 06:17:24;;;;;;;78.28;73.72;;;23.60;79.10;;;;;;5051205;28;20041;-78
2022/08/25 06:19:50;;;;;;;79.63;75.00;;;23.70;78.70;;;;;;5052029;28;20381;-78
2022/08/25 06:22:16;;;;;;;76.38;72.07;;;23.80;78.50;;;;;;5051742;28;20263;-78
2022/08/25 06:24:42;;;;;;;75.82;71.50;;;23.60;78.70;;;;;;5035337;28;20036;-78
2022/08/25 06:27:08;;;;;;;72.15;67.93;;;23.60;79.00;;;;;;5034642;28;20041;-78
2022/08/25 06:29:34;;;;;;;74.93;70.75;;;23.70;79.10;;;;;;5051776;28;20478;-78
2022/08/25 06:32:01;;;;;;;86.10;81.18;;;23.50;79.50;;;;;;5048429;28;20041;-78
2022/08/25 06:34:27;;;;;;;74.10;69.85;;;23.60;79.00;;;;;;5035267;28;20493;-78
2022/08/25 06:36:53;;;;;;;73.28;68.82;;;23.60;79.20;;;;;;5034612;28;20047;-78
2022/08/25 06:39:19;;;;;;;74.20;70.00;;;23.40;79.80;;;;;;5035218;28;20048;-78
2022/08/25 06:41:49;;;;;;;71.35;67.13;;;23.40;80.10;;;;;;5050616;28;20025;-78
2022/08/25 06:44:15;;;;;;;69.47;65.43;;;23.40;80.00;;;;;;5047148;28;20468;-77
2022/08/25 06:46:41;;;;;;;69.45;65.43;;;23.40;79.90;;;;;;5038589;28;20045;-78
2022/08/25 06:49:07;;;;;;;56.47;52.97;;;23.50;79.90;;;;;;5034940;28;20033;-78
2022/08/25 06:51:34;;;;;;;50.35;46.97;;;23.60;79.50;;;;;;5035105;28;20021;-78
2022/08/25 06:54:00;;;;;;;79.07;74.47;;;23.80;79.20;;;;;;5051532;28;20029;-78
2022/08/25 06:56:26;;;;;;;76.43;72.00;;;23.80;78.20;;;;;;5017964;28;20040;-78
2022/08/25 06:58:53;;;;;;;65.35;61.35;;;23.80;78.60;;;;;;5034275;28;20057;-78
2022/08/25 07:01:22;;;;;;;64.75;61.10;;;23.80;78.50;;;;;;5016887;28;20508;-78
2022/08/25 07:03:49;;;;;;;60.20;55.75;;;24.00;78.30;;;;;;5052330;28;20037;-78
2022/08/25 07:06:17;;;;;;;61.92;57.85;;;24.10;78.70;;;;;;5051231;28;20021;-78
2022/08/25 07:08:43;;;;;;;61.20;57.60;;;24.10;78.70;;;;;;5050957;28;20036;-78
2022/08/25 07:11:10;;;;;;;71.90;67.72;;;24.10;78.40;;;;;;5051044;28;20032;-78
2022/08/25 07:13:36;;;;;;;71.53;67.53;;;24.10;79.00;;;;;;5050831;28;20036;-78
2022/08/25 07:16:04;;;;;;;76.93;72.53;;;24.20;79.10;;;;;;5050306;28;20075;-78
2022/08/25 07:18:30;;;;;;;70.32;66.32;;;24.20;79.00;;;;;;5034181;28;20048;-78
2022/08/25 07:20:57;;;;;;;70.82;66.55;;;24.30;79.00;;;;;;5050917;28;20024;-78
2022/08/25 07:23:23;;;;;;;70.30;66.35;;;24.30;79.20;;;;;;5050895;28;20041;-78
2022/08/25 07:25:49;;;;;;;75.72;71.22;;;24.50;78.50;;;;;;5050679;28;20029;-78
2022/08/25 07:28:15;;;;;;;79.53;75.05;;;24.50;78.80;;;;;;5050256;28;20033;-78
2022/08/25 07:30:41;;;;;;;72.47;68.22;;;24.50;78.80;;;;;;5050060;28;20036;-78
2022/08/25 07:33:08;;;;;;;72.32;68.20;;;24.50;78.80;;;;;;5050495;28;20033;-78
2022/08/25 07:35:36;;;;;;;80.53;75.90;;;24.50;78.10;;;;;;5050410;28;20037;-78
2022/08/25 07:38:02;;;;;;;84.88;80.30;;;24.60;77.90;;;;;;5051441;28;20037;-78
2022/08/25 07:40:33;;;;;;;93.00;87.82;;;24.70;77.50;;;;;;5049914;28;20033;-78
2022/08/25 07:43:02;;;;;;;88.72;83.25;;;24.70;77.50;;;;;;5033301;28;20045;-78
2022/08/25 07:45:30;;;;;;;93.40;88.15;;;24.80;77.30;;;;;;5021900;28;20039;-78
2022/08/25 07:48:09;;;;;;;100.68;95.13;;;24.90;77.30;;;;;;5017987;28;20052;-78
2022/08/25 07:50:37;;;;;;;104.70;98.88;;;24.90;76.70;;;;;;5035053;28;20381;-78
2022/08/25 07:53:04;;;;;;;100.55;94.57;;;25.00;76.70;;;;;;5050134;28;20029;-78
2022/08/25 07:55:31;;;;;;;105.82;99.82;;;25.00;76.60;;;;;;5033776;28;20494;-78
2022/08/25 07:57:58;;;;;;;92.57;87.22;;;25.00;76.20;;;;;;5033057;28;20040;-78
2022/08/25 08:00:27;;;;;;;89.43;84.15;;;24.90;76.80;;;;;;5032765;28;20043;-78
2022/08/25 08:02:53;;;;;;;96.30;90.60;;;24.80;77.20;;;;;;5033541;28;20037;-78
2022/08/25 08:05:19;;;;;;;98.68;92.93;;;24.70;77.20;;;;;;5050028;28;20028;-78
2022/08/25 08:07:45;;;;;;;92.72;87.35;;;24.60;77.70;;;;;;5030086;28;20042;-79
2022/08/25 08:10:12;;;;;;;84.57;79.70;;;24.60;77.80;;;;;;5042239;28;20482;-78
2022/08/25 08:12:38;;;;;;;88.13;83.03;;;24.70;77.70;;;;;;5047513;28;20037;-78
2022/08/25 08:15:05;;;;;;;91.35;86.20;;;24.70;77.80;;;;;;5045420;28;20034;-78
2022/08/25 08:17:31;;;;;;;90.60;85.32;;;24.70;77.30;;;;;;5000926;28;20056;-80
2022/08/25 08:19:58;;;;;;;103.00;97.28;;;24.70;77.70;;;;;;5041148;28;20045;-78
2022/08/25 08:22:24;;;;;;;101.75;95.97;;;24.70;77.30;;;;;;5029728;28;20058;-79
2022/08/25 08:24:50;;;;;;;99.05;93.47;;;24.80;76.70;;;;;;5048241;28;20040;-77
2022/08/25 08:27:16;;;;;;;104.43;98.70;;;24.80;77.00;;;;;;5048937;28;20025;-76
2022/08/25 08:29:42;;;;;;;104.07;98.18;;;24.80;76.80;;;;;;5049616;28;20037;-76
2022/08/25 08:32:12;;;;;;;95.70;90.35;;;24.80;77.10;;;;;;5048803;28;20037;-76
2022/08/25 08:34:39;;;;;;;102.00;96.45;;;24.80;76.90;;;;;;5033013;28;20036;-76
2022/08/25 08:37:06;;;;;;;98.95;93.05;;;24.70;76.60;;;;;;5049400;28;20036;-76
2022/08/25 08:39:32;;;;;;;102.93;97.18;;;24.70;76.60;;;;;;5049321;28;20033;-76
2022/08/25 08:42:24;;;;;;;102.35;96.82;;;24.70;76.20;;;;;;5049177;28;20032;-76
2022/08/25 08:44:56;;;;;;;104.95;99.00;;;24.60;76.40;;;;;;5028213;28;20113;-76
2022/08/25 08:47:31;;;;;;;106.70;100.20;;;24.60;76.50;;;;;;4980220;28;20054;-76
2022/08/25 08:50:27;;;;;;;104.45;98.63;;;24.60;76.50;;;;;;5008538;28;20161;-76
2022/08/25 08:53:02;;;;;;;101.20;95.35;;;24.60;76.30;;;;;;4992271;28;20041;-76
2022/08/25 08:55:40;;;;;;;98.72;93.03;;;24.60;77.20;;;;;;5007978;28;20045;-76
2022/08/25 08:58:09;;;;;;;101.03;95.40;;;24.50;77.20;;;;;;4991733;28;20060;-76
2022/08/25 09:00:43;;;;;;;105.88;99.55;;;24.60;77.00;;;;;;4975639;28;20026;-76
2022/08/25 09:03:14;;;;;;;95.05;89.82;;;24.60;77.20;;;;;;4991988;28;20037;-76
2022/08/25 09:05:46;;;;;;;107.65;101.72;;;24.60;76.80;;;;;;4992132;28;20037;-76
2022/08/25 09:08:13;;;;;;;98.22;92.65;;;24.60;77.30;;;;;;4991968;28;20045;-76
2022/08/25 09:10:57;;;;;;;91.22;86.07;;;24.60;77.40;;;;;;4991851;28;20030;-76
2022/08/25 09:13:42;;;;;;;102.72;96.90;;;24.60;77.20;;;;;;4976318;28;20105;-76
2022/08/25 09:19:32;;;;;;;94.35;89.05;;;24.60;77.60;;;;;;5010852;28;20403;-76
2022/08/25 09:22:05;;;;;;;105.97;99.93;;;24.70;77.20;;;;;;5023606;28;20041;-78
2022/08/25 09:24:58;;;;;;;95.47;89.75;;;24.80;77.40;;;;;;5052909;28;20041;-76
2022/08/25 09:27:31;;;;;;;104.07;97.90;;;24.80;77.50;;;;;;5031842;28;20049;-76
2022/08/25 09:30:05;;;;;;;104.93;99.30;;;24.90;77.10;;;;;;5032088;28;20387;-76
2022/08/25 09:32:41;;;;;;;99.78;94.10;;;25.00;76.80;;;;;;5045821;28;20029;-76
2022/08/25 09:35:14;;;;;;;92.38;87.40;;;25.10;76.30;;;;;;5031452;28;20029;-76
2022/08/25 09:37:40;;;;;;;101.95;95.78;;;25.20;76.30;;;;;;5018149;28;20418;-76
2022/08/25 09:40:07;;;;;;;103.45;97.65;;;25.10;76.30;;;;;;5051018;28;20040;-76
2022/08/25 09:42:50;;;;;;;85.15;80.00;;;25.20;76.60;;;;;;5051334;28;20040;-76
2022/08/25 09:45:18;;;;;;;96.65;91.10;;;25.00;76.60;;;;;;5021232;28;20037;-76
2022/08/25 09:47:44;;;;;;;83.55;78.63;;;25.00;77.00;;;;;;5034603;28;20422;-76
2022/08/25 09:50:15;;;;;;;111.15;104.70;;;24.90;76.00;;;;;;5018107;28;20048;-76
2022/08/25 09:52:43;;;;;;;99.18;93.65;;;24.90;76.30;;;;;;5034651;28;20437;-76
2022/08/25 09:55:14;;;;;;;101.68;95.88;;;24.70;77.20;;;;;;5034618;28;20037;-76
2022/08/25 09:57:43;;;;;;;98.50;92.97;;;24.70;77.50;;;;;;5051197;28;20041;-76
2022/08/25 10:00:17;;;;;;;83.53;78.85;;;24.70;77.30;;;;;;5033307;28;20045;-76
2022/08/25 10:02:59;;;;;;;103.30;97.43;;;24.70;77.30;;;;;;5034997;28;20507;-76
2022/08/25 10:05:25;;;;;;;89.95;84.80;;;24.70;77.10;;;;;;5051593;28;20497;-76
2022/08/25 10:07:55;;;;;;;77.90;73.40;;;24.80;77.10;;;;;;5052025;28;20029;-76
2022/08/25 10:10:29;;;;;;;83.15;78.15;;;24.70;77.20;;;;;;5052189;28;20029;-77
2022/08/25 10:12:58;;;;;;;89.07;84.00;;;24.70;77.40;;;;;;5052223;28;20025;-76
2022/08/25 10:15:35;;;;;;;91.63;86.65;;;24.70;76.70;;;;;;5051309;28;20032;-76
2022/08/25 10:18:24;;;;;;;81.82;77.18;;;24.60;76.30;;;;;;5035364;28;20041;-76
2022/08/25 10:21:10;;;;;;;80.45;75.88;;;24.40;77.10;;;;;;5035586;28;20494;-76
2022/08/25 10:23:43;;;;;;;74.00;69.68;;;24.30;77.80;;;;;;5051483;28;20025;-76
2022/08/25 10:26:13;;;;;;;79.60;75.05;;;24.10;78.10;;;;;;5036270;28;20541;-76
2022/08/25 10:29:04;;;;;;;84.32;79.85;;;24.10;78.40;;;;;;5034557;28;20044;-77
2022/08/25 10:31:36;;;;;;;88.53;83.55;;;24.20;78.00;;;;;;5037436;28;20055;-76
2022/08/25 10:34:13;;;;;;;82.70;78.05;;;24.40;77.70;;;;;;5035340;28;20021;-79
2022/08/25 10:37:04;;;;;;;86.60;81.57;;;24.60;77.30;;;;;;5051380;28;20041;-77
2022/08/25 10:39:36;;;;;;;;;;;24.70;76.60;;;;;;5052095;28;20036;-77
2022/08/25 10:42:08;;;;;;;91.65;86.45;;;24.70;76.70;;;;;;5051208;28;19920;-77
2022/08/25 10:48:19;;;;;;;98.63;93.10;;;24.50;76.10;;;;;;5055412;28;20079;-77
2022/08/25 10:50:57;;;;;;;87.88;83.25;;;24.50;76.00;;;;;;5013674;28;20045;-76
2022/08/25 10:53:32;;;;;;;87.18;82.43;;;24.40;76.50;;;;;;5030641;28;20037;-77
2022/08/25 10:56:37;;;;;;;99.55;94.40;;;24.40;76.40;;;;;;5029907;28;20048;-77
2022/08/25 10:59:09;;;;;;;87.93;83.32;;;24.50;76.30;;;;;;4950653;29;20424;-77
2022/08/25 11:01:58;;;;;;;98.25;92.82;;;24.60;75.70;;;;;;4951702;28;20492;-77
2022/08/25 11:04:47;;;;;;;97.60;92.30;;;24.70;75.30;;;;;;4894645;29;20043;-77
2022/08/25 11:07:34;;;;;;;94.50;89.47;;;24.80;75.40;;;;;;4894644;29;20048;-77
2022/08/25 11:10:08;;;;;;;90.88;86.07;;;24.70;74.90;;;;;;4894224;29;20048;-77
2022/08/25 11:12:46;;;;;;;94.45;89.35;;;24.70;75.10;;;;;;4894331;29;20043;-77
2022/08/25 11:15:17;;;;;;;87.47;82.68;;;24.80;74.90;;;;;;4893649;29;20045;-77
2022/08/25 11:17:56;;;;;;;91.18;86.22;;;24.90;74.50;;;;;;4894887;29;20036;-77
2022/08/25 11:20:27;;;;;;;61.65;58.35;;;25.00;74.60;;;;;;4893910;29;20040;-77
2022/08/25 11:23:14;;;;;;;60.25;56.92;;;25.20;72.80;;;;;;4916945;29;20047;-77
2022/08/25 11:25:45;;;;;;;59.60;56.20;;;25.20;72.60;;;;;;4916411;29;20039;-77
2022/08/25 11:28:30;;;;;;;61.13;57.83;;;25.10;72.60;;;;;;4916997;29;20044;-77
2022/08/25 11:30:58;;;;;;;58.22;55.20;;;25.20;72.50;;;;;;4902551;29;20038;-77
2022/08/25 11:33:24;;;;;;;57.53;54.33;;;25.40;72.40;;;;;;4932584;29;20027;-77
2022/08/25 11:36:17;;;;;;;55.63;52.63;;;25.50;71.70;;;;;;4962778;28;20595;-77
2022/08/25 11:39:11;;;;;;;53.10;50.10;;;25.70;71.20;;;;;;4960409;28;20042;-77
2022/08/25 11:42:12;;;;;;;53.17;50.08;;;25.70;70.10;;;;;;5001736;28;20379;-77
2022/08/25 11:44:59;;;;;;;55.53;52.45;;;25.70;70.50;;;;;;5053516;28;20032;-77
2022/08/25 11:48:03;;;;;;;53.22;50.30;;;25.80;70.10;;;;;;5071454;28;20056;-77
2022/08/25 11:50:34;;;;;;;58.60;55.30;;;25.70;70.20;;;;;;5049802;28;20049;-77
2022/08/25 11:53:17;;;;;;;52.47;49.50;;;25.70;70.40;;;;;;5017792;28;20029;-77
2022/08/25 11:55:47;;;;;;;54.22;51.40;;;25.70;69.60;;;;;;5033392;28;20044;-77
2022/08/25 11:58:25;;;;;;;52.70;49.75;;;25.80;69.60;;;;;;5033831;28;20363;-77
2022/08/25 12:00:51;;;;;;;56.58;53.47;;;25.80;69.20;;;;;;5049353;28;20040;-77
2022/08/25 12:03:35;;;;;;;57.22;53.95;;;25.70;69.70;;;;;;5033823;28;20037;-77
2022/08/25 12:06:15;;;;;;;58.17;55.08;;;25.80;69.50;;;;;;5049823;28;20041;-77
2022/08/25 12:09:14;;;;;;;56.03;52.80;;;25.80;69.80;;;;;;5049846;28;20044;-77
2022/08/25 12:11:46;;;;;;;63.25;59.67;;;25.80;69.20;;;;;;5046968;28;20029;-77
2022/08/25 12:14:23;;;;;;;55.13;52.13;;;25.80;70.00;;;;;;5051082;28;20029;-77
2022/08/25 12:16:55;;;;;;;56.05;53.08;;;25.90;68.40;;;;;;5033536;28;20036;-77
2022/08/25 12:19:34;;;;;;;49.88;46.85;;;25.90;68.50;;;;;;5050727;28;20037;-77
2022/08/25 12:22:01;;;;;;;50.95;48.25;;;25.90;68.40;;;;;;5033765;28;20029;-77
2022/08/25 12:24:42;;;;;;;54.22;51.35;;;25.90;68.30;;;;;;5049680;28;20041;-77
2022/08/25 12:27:31;;;;;;;54.53;51.47;;;25.80;68.20;;;;;;5051026;28;20036;-78
2022/08/25 12:30:02;;;;;;;53.13;50.42;;;25.90;68.60;;;;;;5049674;28;20044;-77
2022/08/25 12:32:43;;;;;;;;;;;25.90;68.20;;;;;;5048751;28;20037;-78
2022/08/25 12:35:18;;;;;;;;;;;26.00;68.00;;;;;;5051244;28;19916;-77
2022/08/25 12:38:04;;;;;;;46.33;43.78;;;26.00;67.70;;;;;;5050779;28;19909;-77
2022/08/25 12:40:39;;;;;;;54.55;51.70;;;26.00;67.50;;;;;;5013904;28;20045;-77
2022/08/25 12:43:19;;;;;;;50.33;47.83;;;26.00;67.70;;;;;;5029517;28;20033;-77
2022/08/25 12:45:46;;;;;;;52.28;49.53;;;26.10;67.40;;;;;;5031073;28;20033;-77
2022/08/25 12:48:52;;;;;;;51.47;48.70;;;26.10;67.60;;;;;;5048827;28;20056;-77
2022/08/25 12:51:19;;;;;;;51.17;48.45;;;26.00;67.20;;;;;;5048030;28;20044;-77
2022/08/25 12:54:11;;;;;;;54.35;51.40;;;26.00;67.50;;;;;;5048017;28;20548;-77
2022/08/25 12:56:44;;;;;;;52.25;49.55;;;26.00;68.20;;;;;;5054899;28;20063;-75